sensor_id;sensor_type;location;lat;lon;timestamp;temperature;humidity
29939;DHT22;16799;50.844;5.304;2023-03-21T00:00:33;11.20;99.90
29939;DHT22;16799;50.844;5.304;2023-03-21T00:02:59;11.10;99.90
29939;DHT22;16799;50.844;5.304;2023-03-21T00:05:25;11.10;99.90
29939;DHT22;16799;50.844;5.304;2023-03-21T00:07:51;11.20;99.90
29939;DHT22;16799;50.844;5.304;2023-03-21T00:10:17;11.20;99.90
29939;DHT22;16799;50.844;5.304;2023-03-21T00:12:42;11.20;99.90
29939;DHT22;16799;50.844;5.304;2023-03-21T00:15:10;11.10;99.90
29939;DHT22;16799;50.844;5.304;2023-03-21T00:17:37;11.20;99.90
29939;DHT22;16799;50.844;5.304;2023-03-21T00:20:05;11.20;99.90
29939;DHT22;16799;50.844;5.304;2023-03-21T00:22:33;11.30;99.90
29939;DHT22;16799;50.844;5.304;2023-03-21T00:24:59;11.20;99.90
29939;DHT22;16799;50.844;5.304;2023-03-21T00:27:25;11.20;99.90
29939;DHT22;16799;50.844;5.304;2023-03-21T00:29:52;11.20;99.90
29939;DHT22;16799;50.844;5.304;2023-03-21T00:32:19;11.30;99.90
29939;DHT22;16799;50.844;5.304;2023-03-21T00:34:46;11.20;99.90
29939;DHT22;16799;50.844;5.304;2023-03-21T00:37:12;11.10;99.90
29939;DHT22;16799;50.844;5.304;2023-03-21T00:39:46;11.10;99.90
29939;DHT22;16799;50.844;5.304;2023-03-21T00:42:14;11.10;99.90
29939;DHT22;16799;50.844;5.304;2023-03-21T00:44:40;11.20;99.90
29939;DHT22;16799;50.844;5.304;2023-03-21T00:47:09;11.30;99.90
29939;DHT22;16799;50.844;5.304;2023-03-21T00:49:35;11.20;99.90
29939;DHT22;16799;50.844;5.304;2023-03-21T00:52:05;11.10;99.90
29939;DHT22;16799;50.844;5.304;2023-03-21T00:54:32;11.00;99.90
29939;DHT22;16799;50.844;5.304;2023-03-21T00:56:58;10.90;99.90
29939;DHT22;16799;50.844;5.304;2023-03-21T00:59:24;11.00;99.90
29939;DHT22;16799;50.844;5.304;2023-03-21T01:01:49;11.00;99.90
29939;DHT22;16799;50.844;5.304;2023-03-21T01:04:18;11.00;99.90
29939;DHT22;16799;50.844;5.304;2023-03-21T01:06:46;11.00;99.90
29939;DHT22;16799;50.844;5.304;2023-03-21T01:09:30;10.80;99.90
29939;DHT22;16799;50.844;5.304;2023-03-21T01:11:56;10.90;99.90
29939;DHT22;16799;50.844;5.304;2023-03-21T01:14:22;10.90;99.90
29939;DHT22;16799;50.844;5.304;2023-03-21T01:16:49;10.80;99.90
29939;DHT22;16799;50.844;5.304;2023-03-21T01:19:18;10.80;99.90
29939;DHT22;16799;50.844;5.304;2023-03-21T01:21:44;10.90;99.90
29939;DHT22;16799;50.844;5.304;2023-03-21T01:24:09;11.00;99.90
29939;DHT22;16799;50.844;5.304;2023-03-21T01:26:36;10.90;99.90
29939;DHT22;16799;50.844;5.304;2023-03-21T01:29:03;10.90;99.90
29939;DHT22;16799;50.844;5.304;2023-03-21T01:31:29;10.90;99.90
29939;DHT22;16799;50.844;5.304;2023-03-21T01:33:54;10.90;99.90
29939;DHT22;16799;50.844;5.304;2023-03-21T01:36:23;10.80;99.90
29939;DHT22;16799;50.844;5.304;2023-03-21T01:38:49;10.80;99.90
29939;DHT22;16799;50.844;5.304;2023-03-21T01:41:38;10.90;99.90
29939;DHT22;16799;50.844;5.304;2023-03-21T01:44:04;11.00;99.90
29939;DHT22;16799;50.844;5.304;2023-03-21T01:46:32;11.00;99.90
29939;DHT22;16799;50.844;5.304;2023-03-21T01:51:26;10.90;99.90
29939;DHT22;16799;50.844;5.304;2023-03-21T01:53:54;11.00;99.90
29939;DHT22;16799;50.844;5.304;2023-03-21T01:56:27;11.10;99.90
29939;DHT22;16799;50.844;5.304;2023-03-21T01:59:04;11.20;99.90
29939;DHT22;16799;50.844;5.304;2023-03-21T02:01:31;11.10;99.90
29939;DHT22;16799;50.844;5.304;2023-03-21T02:04:00;11.00;99.90
29939;DHT22;16799;50.844;5.304;2023-03-21T02:06:45;11.00;99.90
29939;DHT22;16799;50.844;5.304;2023-03-21T02:09:15;10.90;99.90
29939;DHT22;16799;50.844;5.304;2023-03-21T02:11:43;10.80;99.90
29939;DHT22;16799;50.844;5.304;2023-03-21T02:14:14;10.80;99.90
29939;DHT22;16799;50.844;5.304;2023-03-21T02:27:55;10.80;99.90
29939;DHT22;16799;50.844;5.304;2023-03-21T02:47:41;11.00;99.90
29939;DHT22;16799;50.844;5.304;2023-03-21T02:50:45;10.90;99.90
29939;DHT22;16799;50.844;5.304;2023-03-21T02:53:15;10.80;99.90
29939;DHT22;16799;50.844;5.304;2023-03-21T02:55:43;10.90;99.90
29939;DHT22;16799;50.844;5.304;2023-03-21T02:58:12;10.90;99.90
29939;DHT22;16799;50.844;5.304;2023-03-21T03:00:39;10.90;99.90
29939;DHT22;16799;50.844;5.304;2023-03-21T03:03:04;10.90;99.90
29939;DHT22;16799;50.844;5.304;2023-03-21T03:05:34;10.80;99.90
29939;DHT22;16799;50.844;5.304;2023-03-21T03:16:26;10.80;99.90
29939;DHT22;16799;50.844;5.304;2023-03-21T03:18:55;10.90;99.90
29939;DHT22;16799;50.844;5.304;2023-03-21T03:21:46;10.90;99.90
29939;DHT22;16799;50.844;5.304;2023-03-21T03:24:21;11.10;99.90
29939;DHT22;16799;50.844;5.304;2023-03-21T03:27:05;11.10;99.90
29939;DHT22;16799;50.844;5.304;2023-03-21T03:29:33;11.10;99.90
29939;DHT22;16799;50.844;5.304;2023-03-21T03:32:23;11.20;99.90
29939;DHT22;16799;50.844;5.304;2023-03-21T03:34:52;11.00;99.90
29939;DHT22;16799;50.844;5.304;2023-03-21T03:37:24;11.00;99.90
29939;DHT22;16799;50.844;5.304;2023-03-21T03:40:02;11.20;99.90
29939;DHT22;16799;50.844;5.304;2023-03-21T03:45:09;11.30;99.90
29939;DHT22;16799;50.844;5.304;2023-03-21T03:50:40;10.70;99.90
29939;DHT22;16799;50.844;5.304;2023-03-21T03:53:21;10.50;99.90
29939;DHT22;16799;50.844;5.304;2023-03-21T03:55:48;10.60;99.90
29939;DHT22;16799;50.844;5.304;2023-03-21T03:58:20;10.80;99.90
29939;DHT22;16799;50.844;5.304;2023-03-21T04:00:46;10.80;99.90
29939;DHT22;16799;50.844;5.304;2023-03-21T04:03:14;10.80;99.90
29939;DHT22;16799;50.844;5.304;2023-03-21T04:05:40;10.70;99.90
29939;DHT22;16799;50.844;5.304;2023-03-21T04:08:07;10.60;99.90
29939;DHT22;16799;50.844;5.304;2023-03-21T04:10:33;10.80;99.90
29939;DHT22;16799;50.844;5.304;2023-03-21T04:12:59;11.00;99.90
29939;DHT22;16799;50.844;5.304;2023-03-21T04:15:25;11.10;99.90
29939;DHT22;16799;50.844;5.304;2023-03-21T04:17:50;11.00;99.90
29939;DHT22;16799;50.844;5.304;2023-03-21T04:20:16;11.10;99.90
29939;DHT22;16799;50.844;5.304;2023-03-21T04:22:42;11.00;99.90
29939;DHT22;16799;50.844;5.304;2023-03-21T04:25:08;11.00;99.90
29939;DHT22;16799;50.844;5.304;2023-03-21T04:27:34;11.20;99.90
29939;DHT22;16799;50.844;5.304;2023-03-21T04:30:00;11.40;99.90
29939;DHT22;16799;50.844;5.304;2023-03-21T04:32:26;11.40;99.90
29939;DHT22;16799;50.844;5.304;2023-03-21T04:34:52;11.50;99.90
29939;DHT22;16799;50.844;5.304;2023-03-21T04:37:21;11.50;99.90
29939;DHT22;16799;50.844;5.304;2023-03-21T04:39:48;11.50;99.90
29939;DHT22;16799;50.844;5.304;2023-03-21T04:42:15;11.70;99.90
29939;DHT22;16799;50.844;5.304;2023-03-21T04:44:44;11.50;99.90
29939;DHT22;16799;50.844;5.304;2023-03-21T04:47:09;11.50;99.90
29939;DHT22;16799;50.844;5.304;2023-03-21T04:49:37;11.50;99.90
29939;DHT22;16799;50.844;5.304;2023-03-21T04:52:04;11.60;99.90
29939;DHT22;16799;50.844;5.304;2023-03-21T04:54:30;11.50;99.90
29939;DHT22;16799;50.844;5.304;2023-03-21T04:56:57;11.30;99.90
29939;DHT22;16799;50.844;5.304;2023-03-21T04:59:23;11.00;99.90
29939;DHT22;16799;50.844;5.304;2023-03-21T05:01:49;10.80;99.90
29939;DHT22;16799;50.844;5.304;2023-03-21T05:04:15;10.80;99.90
29939;DHT22;16799;50.844;5.304;2023-03-21T05:06:41;11.00;99.90
29939;DHT22;16799;50.844;5.304;2023-03-21T05:09:08;11.20;99.90
29939;DHT22;16799;50.844;5.304;2023-03-21T05:11:36;11.30;99.90
29939;DHT22;16799;50.844;5.304;2023-03-21T05:14:10;11.40;99.90
29939;DHT22;16799;50.844;5.304;2023-03-21T05:16:39;11.20;99.90
29939;DHT22;16799;50.844;5.304;2023-03-21T05:19:13;11.10;99.90
29939;DHT22;16799;50.844;5.304;2023-03-21T05:21:39;10.90;99.90
29939;DHT22;16799;50.844;5.304;2023-03-21T05:24:16;10.90;99.90
29939;DHT22;16799;50.844;5.304;2023-03-21T05:26:43;10.80;99.90
29939;DHT22;16799;50.844;5.304;2023-03-21T05:29:15;10.80;99.90
29939;DHT22;16799;50.844;5.304;2023-03-21T05:31:43;10.90;99.90
29939;DHT22;16799;50.844;5.304;2023-03-21T05:34:10;10.90;99.90
29939;DHT22;16799;50.844;5.304;2023-03-21T05:36:35;10.80;99.90
29939;DHT22;16799;50.844;5.304;2023-03-21T05:39:02;10.90;99.90
29939;DHT22;16799;50.844;5.304;2023-03-21T05:41:28;10.90;99.90
29939;DHT22;16799;50.844;5.304;2023-03-21T05:43:53;10.90;99.90
29939;DHT22;16799;50.844;5.304;2023-03-21T05:46:19;10.90;99.90
29939;DHT22;16799;50.844;5.304;2023-03-21T05:48:45;10.80;99.90
29939;DHT22;16799;50.844;5.304;2023-03-21T05:51:11;10.80;99.90
29939;DHT22;16799;50.844;5.304;2023-03-21T05:53:36;10.70;99.90
29939;DHT22;16799;50.844;5.304;2023-03-21T05:56:02;10.60;99.90
29939;DHT22;16799;50.844;5.304;2023-03-21T05:58:28;10.80;99.90
29939;DHT22;16799;50.844;5.304;2023-03-21T06:00:54;10.90;99.90
29939;DHT22;16799;50.844;5.304;2023-03-21T06:03:20;10.80;99.90
29939;DHT22;16799;50.844;5.304;2023-03-21T06:05:46;10.70;99.90
29939;DHT22;16799;50.844;5.304;2023-03-21T06:08:11;10.60;99.90
29939;DHT22;16799;50.844;5.304;2023-03-21T06:10:37;10.50;99.90
29939;DHT22;16799;50.844;5.304;2023-03-21T06:13:03;10.60;99.90
29939;DHT22;16799;50.844;5.304;2023-03-21T06:15:29;10.70;99.90
29939;DHT22;16799;50.844;5.304;2023-03-21T06:17:55;10.70;99.90
29939;DHT22;16799;50.844;5.304;2023-03-21T06:20:21;10.70;99.90
29939;DHT22;16799;50.844;5.304;2023-03-21T06:22:46;10.70;99.90
29939;DHT22;16799;50.844;5.304;2023-03-21T06:25:12;10.80;99.90
29939;DHT22;16799;50.844;5.304;2023-03-21T06:27:38;10.80;99.90
29939;DHT22;16799;50.844;5.304;2023-03-21T06:30:04;10.70;99.90
29939;DHT22;16799;50.844;5.304;2023-03-21T06:32:30;10.70;99.90
29939;DHT22;16799;50.844;5.304;2023-03-21T06:34:57;10.70;99.90
29939;DHT22;16799;50.844;5.304;2023-03-21T06:37:23;10.70;99.90
29939;DHT22;16799;50.844;5.304;2023-03-21T06:39:50;10.70;99.90
29939;DHT22;16799;50.844;5.304;2023-03-21T06:42:16;10.80;99.90
29939;DHT22;16799;50.844;5.304;2023-03-21T06:44:42;10.90;99.90
29939;DHT22;16799;50.844;5.304;2023-03-21T06:47:08;10.90;99.90
29939;DHT22;16799;50.844;5.304;2023-03-21T06:49:34;10.90;99.90
29939;DHT22;16799;50.844;5.304;2023-03-21T06:51:59;10.90;99.90
29939;DHT22;16799;50.844;5.304;2023-03-21T06:54:25;10.90;99.90
29939;DHT22;16799;50.844;5.304;2023-03-21T06:56:51;10.90;99.90
29939;DHT22;16799;50.844;5.304;2023-03-21T06:59:16;10.90;99.90
29939;DHT22;16799;50.844;5.304;2023-03-21T07:01:42;10.90;99.90
29939;DHT22;16799;50.844;5.304;2023-03-21T07:04:09;10.90;99.90
29939;DHT22;16799;50.844;5.304;2023-03-21T07:06:35;10.90;99.90
29939;DHT22;16799;50.844;5.304;2023-03-21T07:09:02;10.80;99.90
29939;DHT22;16799;50.844;5.304;2023-03-21T07:11:30;10.70;99.90
29939;DHT22;16799;50.844;5.304;2023-03-21T07:13:57;10.60;99.90
29939;DHT22;16799;50.844;5.304;2023-03-21T07:16:23;10.50;99.90
29939;DHT22;16799;50.844;5.304;2023-03-21T07:18:49;10.50;99.90
29939;DHT22;16799;50.844;5.304;2023-03-21T07:21:16;10.50;99.90
29939;DHT22;16799;50.844;5.304;2023-03-21T07:23:41;10.40;99.90
29939;DHT22;16799;50.844;5.304;2023-03-21T07:26:07;10.50;99.90
29939;DHT22;16799;50.844;5.304;2023-03-21T07:28:33;10.40;99.90
29939;DHT22;16799;50.844;5.304;2023-03-21T07:31:02;10.50;99.90
29939;DHT22;16799;50.844;5.304;2023-03-21T07:33:29;10.50;99.90
29939;DHT22;16799;50.844;5.304;2023-03-21T07:35:56;10.60;99.90
29939;DHT22;16799;50.844;5.304;2023-03-21T07:38:22;10.60;99.90
29939;DHT22;16799;50.844;5.304;2023-03-21T07:40:48;10.60;99.90
29939;DHT22;16799;50.844;5.304;2023-03-21T07:43:14;10.50;99.90
29939;DHT22;16799;50.844;5.304;2023-03-21T07:45:40;10.40;99.90
29939;DHT22;16799;50.844;5.304;2023-03-21T07:48:07;10.60;99.90
29939;DHT22;16799;50.844;5.304;2023-03-21T07:50:33;10.60;99.90
29939;DHT22;16799;50.844;5.304;2023-03-21T07:52:59;10.60;99.90
29939;DHT22;16799;50.844;5.304;2023-03-21T07:55:25;10.50;99.90
29939;DHT22;16799;50.844;5.304;2023-03-21T07:57:52;10.40;99.90
29939;DHT22;16799;50.844;5.304;2023-03-21T08:00:19;10.30;99.90
29939;DHT22;16799;50.844;5.304;2023-03-21T08:02:52;10.20;99.90
29939;DHT22;16799;50.844;5.304;2023-03-21T08:05:23;10.20;99.90
29939;DHT22;16799;50.844;5.304;2023-03-21T08:07:49;10.10;99.90
29939;DHT22;16799;50.844;5.304;2023-03-21T08:10:16;10.10;99.90
29939;DHT22;16799;50.844;5.304;2023-03-21T08:12:42;10.10;99.90
29939;DHT22;16799;50.844;5.304;2023-03-21T08:15:08;10.10;99.90
29939;DHT22;16799;50.844;5.304;2023-03-21T08:17:33;10.10;99.90
29939;DHT22;16799;50.844;5.304;2023-03-21T08:20:07;10.10;99.90
29939;DHT22;16799;50.844;5.304;2023-03-21T08:22:34;10.20;99.90
29939;DHT22;16799;50.844;5.304;2023-03-21T08:25:00;10.30;99.90
29939;DHT22;16799;50.844;5.304;2023-03-21T08:27:28;10.30;99.90
29939;DHT22;16799;50.844;5.304;2023-03-21T08:29:53;10.40;99.90
29939;DHT22;16799;50.844;5.304;2023-03-21T08:32:20;10.50;99.90
29939;DHT22;16799;50.844;5.304;2023-03-21T08:34:52;10.50;99.90
29939;DHT22;16799;50.844;5.304;2023-03-21T08:37:18;10.50;99.90
29939;DHT22;16799;50.844;5.304;2023-03-21T08:39:44;10.60;99.90
29939;DHT22;16799;50.844;5.304;2023-03-21T08:42:09;10.60;99.90
29939;DHT22;16799;50.844;5.304;2023-03-21T08:44:35;10.70;99.90
29939;DHT22;16799;50.844;5.304;2023-03-21T08:47:03;10.70;99.90
29939;DHT22;16799;50.844;5.304;2023-03-21T08:49:29;10.70;99.90
29939;DHT22;16799;50.844;5.304;2023-03-21T08:51:55;10.80;99.90
29939;DHT22;16799;50.844;5.304;2023-03-21T08:54:21;11.00;99.90
29939;DHT22;16799;50.844;5.304;2023-03-21T08:56:47;11.10;99.90
29939;DHT22;16799;50.844;5.304;2023-03-21T08:59:13;11.30;99.90
29939;DHT22;16799;50.844;5.304;2023-03-21T09:01:39;11.50;99.90
29939;DHT22;16799;50.844;5.304;2023-03-21T09:04:05;11.50;99.90
29939;DHT22;16799;50.844;5.304;2023-03-21T09:06:38;11.60;99.90
29939;DHT22;16799;50.844;5.304;2023-03-21T09:09:05;11.50;99.90
29939;DHT22;16799;50.844;5.304;2023-03-21T09:11:33;11.50;99.90
29939;DHT22;16799;50.844;5.304;2023-03-21T09:13:59;11.70;99.90
29939;DHT22;16799;50.844;5.304;2023-03-21T09:16:25;11.90;99.90
29939;DHT22;16799;50.844;5.304;2023-03-21T09:18:50;11.80;99.90
29939;DHT22;16799;50.844;5.304;2023-03-21T09:21:20;11.80;99.90
29939;DHT22;16799;50.844;5.304;2023-03-21T09:23:48;11.90;99.90
29939;DHT22;16799;50.844;5.304;2023-03-21T09:26:15;11.80;99.90
29939;DHT22;16799;50.844;5.304;2023-03-21T09:28:41;11.90;99.90
29939;DHT22;16799;50.844;5.304;2023-03-21T09:31:08;11.90;99.90
29939;DHT22;16799;50.844;5.304;2023-03-21T09:33:39;11.90;99.90
29939;DHT22;16799;50.844;5.304;2023-03-21T09:36:06;11.80;99.90
29939;DHT22;16799;50.844;5.304;2023-03-21T09:38:36;11.80;99.90
29939;DHT22;16799;50.844;5.304;2023-03-21T09:46:41;11.60;99.90
29939;DHT22;16799;50.844;5.304;2023-03-21T09:49:17;11.60;99.90
29939;DHT22;16799;50.844;5.304;2023-03-21T09:51:48;11.60;99.90
29939;DHT22;16799;50.844;5.304;2023-03-21T09:56:48;11.80;99.90
29939;DHT22;16799;50.844;5.304;2023-03-21T09:59:31;12.00;99.90
29939;DHT22;16799;50.844;5.304;2023-03-21T10:02:00;12.20;99.90
29939;DHT22;16799;50.844;5.304;2023-03-21T10:04:27;12.30;99.90
29939;DHT22;16799;50.844;5.304;2023-03-21T10:06:59;12.20;99.90
29939;DHT22;16799;50.844;5.304;2023-03-21T10:09:27;12.20;99.90
29939;DHT22;16799;50.844;5.304;2023-03-21T10:12:07;12.40;99.90
29939;DHT22;16799;50.844;5.304;2023-03-21T10:14:43;12.40;99.90
29939;DHT22;16799;50.844;5.304;2023-03-21T10:17:35;12.50;99.90
29939;DHT22;16799;50.844;5.304;2023-03-21T10:20:17;12.50;99.90
29939;DHT22;16799;50.844;5.304;2023-03-21T10:22:47;12.60;99.90
29939;DHT22;16799;50.844;5.304;2023-03-21T10:25:20;12.60;99.90
29939;DHT22;16799;50.844;5.304;2023-03-21T10:27:47;12.50;99.90
29939;DHT22;16799;50.844;5.304;2023-03-21T10:30:44;12.50;99.90
29939;DHT22;16799;50.844;5.304;2023-03-21T10:33:14;12.60;99.90
29939;DHT22;16799;50.844;5.304;2023-03-21T10:35:44;12.60;99.90
29939;DHT22;16799;50.844;5.304;2023-03-21T10:38:16;12.60;99.90
29939;DHT22;16799;50.844;5.304;2023-03-21T10:40:42;12.50;99.90
29939;DHT22;16799;50.844;5.304;2023-03-21T10:45:53;12.40;99.90
29939;DHT22;16799;50.844;5.304;2023-03-21T10:48:19;12.60;99.90
29939;DHT22;16799;50.844;5.304;2023-03-21T10:50:47;12.70;99.90
29939;DHT22;16799;50.844;5.304;2023-03-21T10:53:26;12.90;99.90
29939;DHT22;16799;50.844;5.304;2023-03-21T10:55:57;13.00;99.90
29939;DHT22;16799;50.844;5.304;2023-03-21T10:58:33;13.10;99.90
29939;DHT22;16799;50.844;5.304;2023-03-21T11:01:05;13.40;99.90
29939;DHT22;16799;50.844;5.304;2023-03-21T11:03:36;13.50;99.90
29939;DHT22;16799;50.844;5.304;2023-03-21T11:06:06;13.50;99.90
29939;DHT22;16799;50.844;5.304;2023-03-21T11:08:48;13.70;99.90
29939;DHT22;16799;50.844;5.304;2023-03-21T11:11:25;13.80;99.90
29939;DHT22;16799;50.844;5.304;2023-03-21T11:13:57;13.90;99.90
29939;DHT22;16799;50.844;5.304;2023-03-21T11:18:59;13.70;99.90
29939;DHT22;16799;50.844;5.304;2023-03-21T11:21:25;13.60;99.90
29939;DHT22;16799;50.844;5.304;2023-03-21T11:23:55;13.80;99.90
29939;DHT22;16799;50.844;5.304;2023-03-21T11:26:26;13.80;99.90
29939;DHT22;16799;50.844;5.304;2023-03-21T11:28:52;13.70;99.90
29939;DHT22;16799;50.844;5.304;2023-03-21T11:31:19;13.80;99.90
29939;DHT22;16799;50.844;5.304;2023-03-21T11:33:53;14.00;99.90
29939;DHT22;16799;50.844;5.304;2023-03-21T11:38:59;13.90;99.90
29939;DHT22;16799;50.844;5.304;2023-03-21T11:41:31;14.00;99.90
29939;DHT22;16799;50.844;5.304;2023-03-21T11:43:59;14.50;99.90
29939;DHT22;16799;50.844;5.304;2023-03-21T11:46:31;14.80;99.60
29939;DHT22;16799;50.844;5.304;2023-03-21T11:48:58;15.10;99.20
29939;DHT22;16799;50.844;5.304;2023-03-21T11:56:32;15.00;98.60
29939;DHT22;16799;50.844;5.304;2023-03-21T12:04:06;15.00;98.80
29939;DHT22;16799;50.844;5.304;2023-03-21T12:06:42;15.20;98.40
29939;DHT22;16799;50.844;5.304;2023-03-21T12:09:36;15.10;97.10
29939;DHT22;16799;50.844;5.304;2023-03-21T12:12:26;15.30;97.80
29939;DHT22;16799;50.844;5.304;2023-03-21T12:15:04;16.20;97.30
29939;DHT22;16799;50.844;5.304;2023-03-21T12:29:07;19.30;85.50
29939;DHT22;16799;50.844;5.304;2023-03-21T12:34:48;17.90;87.90
29939;DHT22;16799;50.844;5.304;2023-03-21T12:37:23;17.20;91.40
29939;DHT22;16799;50.844;5.304;2023-03-21T12:45:35;17.40;90.00
29939;DHT22;16799;50.844;5.304;2023-03-21T12:48:41;17.00;90.30
29939;DHT22;16799;50.844;5.304;2023-03-21T12:51:17;16.50;91.40
29939;DHT22;16799;50.844;5.304;2023-03-21T12:59:26;16.40;92.80
29939;DHT22;16799;50.844;5.304;2023-03-21T13:01:59;16.20;92.60
29939;DHT22;16799;50.844;5.304;2023-03-21T13:07:17;16.10;93.80
29939;DHT22;16799;50.844;5.304;2023-03-21T13:09:44;16.50;94.10
29939;DHT22;16799;50.844;5.304;2023-03-21T13:18:18;16.80;92.20
29939;DHT22;16799;50.844;5.304;2023-03-21T13:20:52;16.00;92.80
29939;DHT22;16799;50.844;5.304;2023-03-21T13:23:23;15.60;94.30
29939;DHT22;16799;50.844;5.304;2023-03-21T13:25:52;15.50;95.00
29939;DHT22;16799;50.844;5.304;2023-03-21T13:28:20;15.10;95.80
29939;DHT22;16799;50.844;5.304;2023-03-21T13:30:46;15.10;96.50
29939;DHT22;16799;50.844;5.304;2023-03-21T13:33:15;15.10;96.50
29939;DHT22;16799;50.844;5.304;2023-03-21T13:35:45;15.30;96.40
29939;DHT22;16799;50.844;5.304;2023-03-21T13:38:21;15.50;96.70
29939;DHT22;16799;50.844;5.304;2023-03-21T13:40:57;15.60;97.30
29939;DHT22;16799;50.844;5.304;2023-03-21T13:43:55;15.50;98.50
29939;DHT22;16799;50.844;5.304;2023-03-21T13:49:00;15.80;97.00
29939;DHT22;16799;50.844;5.304;2023-03-21T13:54:15;16.30;95.00
29939;DHT22;16799;50.844;5.304;2023-03-21T14:04:41;18.00;91.10
29939;DHT22;16799;50.844;5.304;2023-03-21T14:07:15;17.80;91.30
29939;DHT22;16799;50.844;5.304;2023-03-21T14:09:50;17.60;91.30
29939;DHT22;16799;50.844;5.304;2023-03-21T14:12:19;17.30;92.40
29939;DHT22;16799;50.844;5.304;2023-03-21T14:15:17;17.40;92.60
29939;DHT22;16799;50.844;5.304;2023-03-21T14:17:57;17.80;91.50
29939;DHT22;16799;50.844;5.304;2023-03-21T14:20:26;17.50;92.40
29939;DHT22;16799;50.844;5.304;2023-03-21T14:22:53;17.20;92.60
29939;DHT22;16799;50.844;5.304;2023-03-21T14:25:22;17.10;93.70
29939;DHT22;16799;50.844;5.304;2023-03-21T14:27:52;17.00;93.70
29939;DHT22;16799;50.844;5.304;2023-03-21T14:30:37;16.60;94.70
29939;DHT22;16799;50.844;5.304;2023-03-21T14:35:54;16.40;94.60
29939;DHT22;16799;50.844;5.304;2023-03-21T14:38:23;16.60;95.40
29939;DHT22;16799;50.844;5.304;2023-03-21T14:40:52;17.00;94.40
29939;DHT22;16799;50.844;5.304;2023-03-21T14:43:19;17.20;93.10
29939;DHT22;16799;50.844;5.304;2023-03-21T14:45:48;17.20;93.50
29939;DHT22;16799;50.844;5.304;2023-03-21T14:48:16;17.40;92.50
29939;DHT22;16799;50.844;5.304;2023-03-21T14:50:52;17.20;93.30
29939;DHT22;16799;50.844;5.304;2023-03-21T14:53:47;17.30;93.70
29939;DHT22;16799;50.844;5.304;2023-03-21T14:56:22;16.90;94.50
29939;DHT22;16799;50.844;5.304;2023-03-21T14:58:51;16.60;94.90
29939;DHT22;16799;50.844;5.304;2023-03-21T15:01:45;16.50;95.90
29939;DHT22;16799;50.844;5.304;2023-03-21T15:04:13;16.50;96.10
29939;DHT22;16799;50.844;5.304;2023-03-21T15:09:17;16.30;97.10
29939;DHT22;16799;50.844;5.304;2023-03-21T15:11:49;16.30;97.10
29939;DHT22;16799;50.844;5.304;2023-03-21T15:14:18;16.20;96.70
29939;DHT22;16799;50.844;5.304;2023-03-21T15:16:46;16.00;97.50
29939;DHT22;16799;50.844;5.304;2023-03-21T15:19:17;15.90;97.40
29939;DHT22;16799;50.844;5.304;2023-03-21T15:21:50;15.70;98.60
29939;DHT22;16799;50.844;5.304;2023-03-21T15:24:27;15.60;97.90
29939;DHT22;16799;50.844;5.304;2023-03-21T15:27:01;15.40;98.70
29939;DHT22;16799;50.844;5.304;2023-03-21T15:29:28;15.40;99.50
29939;DHT22;16799;50.844;5.304;2023-03-21T15:31:54;15.30;99.90
29939;DHT22;16799;50.844;5.304;2023-03-21T15:34:26;15.30;99.90
29939;DHT22;16799;50.844;5.304;2023-03-21T15:37:07;15.20;99.90
29939;DHT22;16799;50.844;5.304;2023-03-21T15:39:33;15.10;99.90
29939;DHT22;16799;50.844;5.304;2023-03-21T15:42:18;15.10;99.90
29939;DHT22;16799;50.844;5.304;2023-03-21T15:44:48;15.10;99.90
29939;DHT22;16799;50.844;5.304;2023-03-21T15:50:33;15.10;99.90
29939;DHT22;16799;50.844;5.304;2023-03-21T15:53:01;15.20;99.90
29939;DHT22;16799;50.844;5.304;2023-03-21T15:55:31;15.10;99.90
29939;DHT22;16799;50.844;5.304;2023-03-21T15:58:04;15.20;99.90
29939;DHT22;16799;50.844;5.304;2023-03-21T16:00:42;15.10;99.90
29939;DHT22;16799;50.844;5.304;2023-03-21T16:03:26;15.00;99.90
29939;DHT22;16799;50.844;5.304;2023-03-21T16:06:05;14.90;99.90
29939;DHT22;16799;50.844;5.304;2023-03-21T16:08:34;14.90;99.90
29939;DHT22;16799;50.844;5.304;2023-03-21T16:11:13;14.90;99.90
29939;DHT22;16799;50.844;5.304;2023-03-21T16:13:40;14.90;99.90
29939;DHT22;16799;50.844;5.304;2023-03-21T16:16:08;14.90;99.90
29939;DHT22;16799;50.844;5.304;2023-03-21T16:18:38;14.90;99.90
29939;DHT22;16799;50.844;5.304;2023-03-21T16:21:04;14.90;99.90
29939;DHT22;16799;50.844;5.304;2023-03-21T16:23:30;15.00;99.90
29939;DHT22;16799;50.844;5.304;2023-03-21T16:25:55;14.80;99.90
29939;DHT22;16799;50.844;5.304;2023-03-21T16:28:23;14.70;99.90
29939;DHT22;16799;50.844;5.304;2023-03-21T16:30:49;14.60;99.90
29939;DHT22;16799;50.844;5.304;2023-03-21T16:33:14;14.50;99.90
29939;DHT22;16799;50.844;5.304;2023-03-21T16:35:40;14.40;99.90
29939;DHT22;16799;50.844;5.304;2023-03-21T16:38:06;14.40;99.90
29939;DHT22;16799;50.844;5.304;2023-03-21T16:40:35;14.40;99.90
29939;DHT22;16799;50.844;5.304;2023-03-21T16:43:01;14.30;99.90
29939;DHT22;16799;50.844;5.304;2023-03-21T16:45:27;14.20;99.90
29939;DHT22;16799;50.844;5.304;2023-03-21T16:47:55;14.20;99.90
29939;DHT22;16799;50.844;5.304;2023-03-21T16:50:30;14.20;99.90
29939;DHT22;16799;50.844;5.304;2023-03-21T16:52:57;14.20;99.90
29939;DHT22;16799;50.844;5.304;2023-03-21T16:55:24;14.20;99.90
29939;DHT22;16799;50.844;5.304;2023-03-21T16:57:50;14.20;99.90
29939;DHT22;16799;50.844;5.304;2023-03-21T17:00:19;14.10;99.90
29939;DHT22;16799;50.844;5.304;2023-03-21T17:02:49;14.00;99.90
29939;DHT22;16799;50.844;5.304;2023-03-21T17:05:16;13.90;99.90
29939;DHT22;16799;50.844;5.304;2023-03-21T17:07:42;13.90;99.90
29939;DHT22;16799;50.844;5.304;2023-03-21T17:10:28;13.80;99.90
29939;DHT22;16799;50.844;5.304;2023-03-21T17:12:55;13.80;99.90
29939;DHT22;16799;50.844;5.304;2023-03-21T17:15:21;13.70;99.90
29939;DHT22;16799;50.844;5.304;2023-03-21T17:17:47;13.70;99.90
29939;DHT22;16799;50.844;5.304;2023-03-21T17:20:20;13.70;99.90
29939;DHT22;16799;50.844;5.304;2023-03-21T17:22:47;13.60;99.90
29939;DHT22;16799;50.844;5.304;2023-03-21T17:25:14;13.60;99.90
29939;DHT22;16799;50.844;5.304;2023-03-21T17:27:40;13.50;99.90
29939;DHT22;16799;50.844;5.304;2023-03-21T17:30:16;13.50;99.90
29939;DHT22;16799;50.844;5.304;2023-03-21T17:32:43;13.50;99.90
29939;DHT22;16799;50.844;5.304;2023-03-21T17:35:09;13.40;99.90
29939;DHT22;16799;50.844;5.304;2023-03-21T17:37:35;13.40;99.90
29939;DHT22;16799;50.844;5.304;2023-03-21T17:40:03;13.30;99.90
29939;DHT22;16799;50.844;5.304;2023-03-21T17:42:31;13.30;99.90
29939;DHT22;16799;50.844;5.304;2023-03-21T17:44:57;13.20;99.90
29939;DHT22;16799;50.844;5.304;2023-03-21T17:47:22;13.20;99.90
29939;DHT22;16799;50.844;5.304;2023-03-21T17:49:50;13.20;99.90
29939;DHT22;16799;50.844;5.304;2023-03-21T17:52:16;13.20;99.90